Alden, Iowa
Current Conditions -  °F | °C
As of 3:35 AM on Monday 20 Oct 2014 (Local Time) from KIFA Reporting Station
Clear Clear  
Wind Chill:   Ceiling: Unl
Heat Index:   Visibility: 10mi
Dew Point:   Wind: 8mph
Humidity: 81%   Direction: 310°NW
Pressure: 29.93"   Gusts: NA
Location:  42.52°N, 93.38°W
Report Text: KIFA 200835Z AUTO 31007KT 10SM CLR 08/05 A2993 RMK AO2 T00830052
Loading
Personal Weather Stations






























Interactive Weather Map
Tropical Storm Tracking
New forecast layout! Learn more

10-Day Weather Forecast

Advertisements
Track Severe Weather on mobile